VNKT/KTM METAR and TAF weather

Enter ICAO airport designator
Station Type Date Time Source
VNKT METAR 2023/02/04 01:30 UTC NOAA

VNKT 040130Z 00000KT 2500 BR FEW015 07/06 Q1017 NOSIG


Station Type Date Time Source
VNKT Decoded METAR 2023/02/04 01:30 UTC NOAA

Kathmandu Airport, Nepal (VNKT) 27-42N 085-22E 1337M
Feb 03, 2023 - 08:30 PM EST / 2023.02.04 0130 UTC
Wind: Calm:0
Visibility: 1 mile(s):0
Sky conditions: mostly clear
Weather: mist
Temperature: 44 F (7 C)
Dew Point: 42 F (6 C)
Relative Humidity: 93%
Pressure (altimeter): 30.03 in. Hg (1017 hPa)
ob: VNKT 040130Z 00000KT 2500 BR FEW015 07/06 Q1017 NOSIG
cycle: 1

Station Type Date Time Source
VNKT TAF 2023/02/03 18:45 UTC NOAA

TAF VNKT 031700Z 0318/0418 10003KT 7000 FEW015
BECMG 0400/0402 VRB02KT 4000 BR FEW010 PROB40 0401/0403 2000 BR
BECMG 0404/0405 13003KT 5000 HZ FEW015
BECMG 0407/0409 28010KT 8000 FEW020
BECMG 0414/0415 16004KT 6000

Example: see airport list